sensor_id;sensor_type;location;lat;lon;timestamp;temperature;humidity
39277;DHT22;24981;48.086;-1.686;2022-07-11T00:00:08;23.70;85.80
39277;DHT22;24981;48.086;-1.686;2022-07-11T00:02:36;23.70;85.90
39277;DHT22;24981;48.086;-1.686;2022-07-11T00:05:05;23.60;85.90
39277;DHT22;24981;48.086;-1.686;2022-07-11T00:07:33;23.50;87.30
39277;DHT22;24981;48.086;-1.686;2022-07-11T00:10:01;23.50;86.60
39277;DHT22;24981;48.086;-1.686;2022-07-11T00:12:28;23.40;86.80
39277;DHT22;24981;48.086;-1.686;2022-07-11T00:14:57;23.40;87.30
39277;DHT22;24981;48.086;-1.686;2022-07-11T00:17:24;23.20;88.00
39277;DHT22;24981;48.086;-1.686;2022-07-11T00:19:52;23.10;88.20
39277;DHT22;24981;48.086;-1.686;2022-07-11T00:22:20;23.10;88.40
39277;DHT22;24981;48.086;-1.686;2022-07-11T00:24:47;23.00;89.20
39277;DHT22;24981;48.086;-1.686;2022-07-11T00:27:14;23.00;89.20
39277;DHT22;24981;48.086;-1.686;2022-07-11T00:29:42;22.80;89.90
39277;DHT22;24981;48.086;-1.686;2022-07-11T00:32:10;22.80;90.00
39277;DHT22;24981;48.086;-1.686;2022-07-11T00:34:38;22.80;90.10
39277;DHT22;24981;48.086;-1.686;2022-07-11T00:37:05;22.70;90.30
39277;DHT22;24981;48.086;-1.686;2022-07-11T00:39:32;22.60;90.50
39277;DHT22;24981;48.086;-1.686;2022-07-11T00:42:00;22.50;90.70
39277;DHT22;24981;48.086;-1.686;2022-07-11T00:44:27;22.30;91.00
39277;DHT22;24981;48.086;-1.686;2022-07-11T00:46:54;22.30;91.10
39277;DHT22;24981;48.086;-1.686;2022-07-11T00:49:23;22.30;91.30
39277;DHT22;24981;48.086;-1.686;2022-07-11T00:51:50;22.30;91.20
39277;DHT22;24981;48.086;-1.686;2022-07-11T00:54:19;22.30;91.20
39277;DHT22;24981;48.086;-1.686;2022-07-11T00:56:48;22.40;91.20
39277;DHT22;24981;48.086;-1.686;2022-07-11T00:59:17;22.30;91.30
39277;DHT22;24981;48.086;-1.686;2022-07-11T01:01:45;22.30;91.40
39277;DHT22;24981;48.086;-1.686;2022-07-11T01:04:13;22.30;91.50
39277;DHT22;24981;48.086;-1.686;2022-07-11T01:06:41;22.10;91.70
39277;DHT22;24981;48.086;-1.686;2022-07-11T01:09:09;22.10;91.80
39277;DHT22;24981;48.086;-1.686;2022-07-11T01:11:36;22.10;92.00
39277;DHT22;24981;48.086;-1.686;2022-07-11T01:14:03;22.00;92.10
39277;DHT22;24981;48.086;-1.686;2022-07-11T01:16:30;21.90;92.20
39277;DHT22;24981;48.086;-1.686;2022-07-11T01:18:58;21.90;92.30
39277;DHT22;24981;48.086;-1.686;2022-07-11T01:21:30;21.90;92.50
39277;DHT22;24981;48.086;-1.686;2022-07-11T01:24:00;21.80;92.60
39277;DHT22;24981;48.086;-1.686;2022-07-11T01:26:29;21.90;92.50
39277;DHT22;24981;48.086;-1.686;2022-07-11T01:29:06;21.90;92.60
39277;DHT22;24981;48.086;-1.686;2022-07-11T01:31:33;21.90;92.60
39277;DHT22;24981;48.086;-1.686;2022-07-11T01:34:01;21.80;92.60
39277;DHT22;24981;48.086;-1.686;2022-07-11T01:36:29;21.80;92.70
39277;DHT22;24981;48.086;-1.686;2022-07-11T01:38:56;21.70;92.70
39277;DHT22;24981;48.086;-1.686;2022-07-11T01:41:25;21.70;92.90
39277;DHT22;24981;48.086;-1.686;2022-07-11T01:43:53;21.60;93.00
39277;DHT22;24981;48.086;-1.686;2022-07-11T01:46:20;21.70;93.00
39277;DHT22;24981;48.086;-1.686;2022-07-11T01:48:48;21.60;93.10
39277;DHT22;24981;48.086;-1.686;2022-07-11T01:51:16;21.50;93.20
39277;DHT22;24981;48.086;-1.686;2022-07-11T01:53:44;21.50;93.20
39277;DHT22;24981;48.086;-1.686;2022-07-11T01:56:11;21.50;93.30
39277;DHT22;24981;48.086;-1.686;2022-07-11T01:58:40;21.40;93.30
39277;DHT22;24981;48.086;-1.686;2022-07-11T02:01:07;21.50;93.20
39277;DHT22;24981;48.086;-1.686;2022-07-11T02:03:35;21.50;93.30
39277;DHT22;24981;48.086;-1.686;2022-07-11T02:06:05;21.40;93.40
39277;DHT22;24981;48.086;-1.686;2022-07-11T02:08:32;21.40;93.50
39277;DHT22;24981;48.086;-1.686;2022-07-11T02:11:00;21.40;93.50
39277;DHT22;24981;48.086;-1.686;2022-07-11T02:13:27;21.40;93.60
39277;DHT22;24981;48.086;-1.686;2022-07-11T02:15:56;21.40;93.60
39277;DHT22;24981;48.086;-1.686;2022-07-11T02:18:24;21.40;93.60
39277;DHT22;24981;48.086;-1.686;2022-07-11T02:20:51;21.30;93.70
39277;DHT22;24981;48.086;-1.686;2022-07-11T02:23:19;21.30;93.80
39277;DHT22;24981;48.086;-1.686;2022-07-11T02:25:47;21.20;93.90
39277;DHT22;24981;48.086;-1.686;2022-07-11T02:28:14;21.20;94.00
39277;DHT22;24981;48.086;-1.686;2022-07-11T02:30:43;21.10;94.40
39277;DHT22;24981;48.086;-1.686;2022-07-11T02:33:13;21.10;94.20
39277;DHT22;24981;48.086;-1.686;2022-07-11T02:35:41;21.10;94.30
39277;DHT22;24981;48.086;-1.686;2022-07-11T02:38:09;21.00;94.40
39277;DHT22;24981;48.086;-1.686;2022-07-11T02:40:36;21.00;94.60
39277;DHT22;24981;48.086;-1.686;2022-07-11T02:43:03;20.90;94.70
39277;DHT22;24981;48.086;-1.686;2022-07-11T02:45:31;20.90;94.60
39277;DHT22;24981;48.086;-1.686;2022-07-11T02:47:58;20.90;94.70
39277;DHT22;24981;48.086;-1.686;2022-07-11T02:50:27;20.90;94.80
39277;DHT22;24981;48.086;-1.686;2022-07-11T02:52:55;20.80;95.10
39277;DHT22;24981;48.086;-1.686;2022-07-11T02:55:22;20.70;95.10
39277;DHT22;24981;48.086;-1.686;2022-07-11T02:57:49;20.70;95.20
39277;DHT22;24981;48.086;-1.686;2022-07-11T03:00:18;20.60;95.50
39277;DHT22;24981;48.086;-1.686;2022-07-11T03:02:46;20.60;95.50
39277;DHT22;24981;48.086;-1.686;2022-07-11T03:05:13;20.50;95.80
39277;DHT22;24981;48.086;-1.686;2022-07-11T03:07:42;20.50;95.70
39277;DHT22;24981;48.086;-1.686;2022-07-11T03:10:10;20.50;95.80
39277;DHT22;24981;48.086;-1.686;2022-07-11T03:12:37;20.60;95.80
39277;DHT22;24981;48.086;-1.686;2022-07-11T03:15:05;20.40;95.90
39277;DHT22;24981;48.086;-1.686;2022-07-11T03:17:33;20.40;96.00
39277;DHT22;24981;48.086;-1.686;2022-07-11T03:20:02;20.40;96.00
39277;DHT22;24981;48.086;-1.686;2022-07-11T03:22:29;20.50;96.40
39277;DHT22;24981;48.086;-1.686;2022-07-11T03:24:58;20.40;96.10
39277;DHT22;24981;48.086;-1.686;2022-07-11T03:27:26;20.40;96.20
39277;DHT22;24981;48.086;-1.686;2022-07-11T03:29:53;20.30;96.40
39277;DHT22;24981;48.086;-1.686;2022-07-11T03:32:20;20.30;96.50
39277;DHT22;24981;48.086;-1.686;2022-07-11T03:34:48;20.20;96.60
39277;DHT22;24981;48.086;-1.686;2022-07-11T03:37:29;20.20;96.70
39277;DHT22;24981;48.086;-1.686;2022-07-11T03:39:58;20.20;96.80
39277;DHT22;24981;48.086;-1.686;2022-07-11T03:42:26;20.20;96.90
39277;DHT22;24981;48.086;-1.686;2022-07-11T03:44:54;20.10;96.90
39277;DHT22;24981;48.086;-1.686;2022-07-11T03:47:21;20.10;97.20
39277;DHT22;24981;48.086;-1.686;2022-07-11T03:49:48;20.10;97.10
39277;DHT22;24981;48.086;-1.686;2022-07-11T03:52:16;20.00;97.30
39277;DHT22;24981;48.086;-1.686;2022-07-11T03:54:43;20.00;97.40
39277;DHT22;24981;48.086;-1.686;2022-07-11T03:57:12;20.00;97.60
39277;DHT22;24981;48.086;-1.686;2022-07-11T03:59:40;19.90;97.80
39277;DHT22;24981;48.086;-1.686;2022-07-11T04:02:07;19.70;98.10
39277;DHT22;24981;48.086;-1.686;2022-07-11T04:04:34;19.70;98.40
39277;DHT22;24981;48.086;-1.686;2022-07-11T04:07:02;19.60;98.50
39277;DHT22;24981;48.086;-1.686;2022-07-11T04:09:29;19.60;98.60
39277;DHT22;24981;48.086;-1.686;2022-07-11T04:11:57;19.60;98.60
39277;DHT22;24981;48.086;-1.686;2022-07-11T04:14:26;19.60;98.80
39277;DHT22;24981;48.086;-1.686;2022-07-11T04:16:53;19.60;98.80
39277;DHT22;24981;48.086;-1.686;2022-07-11T04:19:20;19.60;99.00
39277;DHT22;24981;48.086;-1.686;2022-07-11T04:21:49;19.60;99.10
39277;DHT22;24981;48.086;-1.686;2022-07-11T04:24:16;19.50;99.10
39277;DHT22;24981;48.086;-1.686;2022-07-11T04:26:44;19.60;99.10
39277;DHT22;24981;48.086;-1.686;2022-07-11T04:29:11;19.60;99.20
39277;DHT22;24981;48.086;-1.686;2022-07-11T04:31:39;19.60;99.30
39277;DHT22;24981;48.086;-1.686;2022-07-11T04:34:07;19.60;99.40
39277;DHT22;24981;48.086;-1.686;2022-07-11T04:36:34;19.50;99.50
39277;DHT22;24981;48.086;-1.686;2022-07-11T04:39:01;19.60;99.50
39277;DHT22;24981;48.086;-1.686;2022-07-11T04:41:29;19.50;99.90
39277;DHT22;24981;48.086;-1.686;2022-07-11T04:43:56;19.50;99.90
39277;DHT22;24981;48.086;-1.686;2022-07-11T04:46:24;19.50;99.90
39277;DHT22;24981;48.086;-1.686;2022-07-11T04:48:52;19.50;99.90
39277;DHT22;24981;48.086;-1.686;2022-07-11T04:51:20;19.50;99.90
39277;DHT22;24981;48.086;-1.686;2022-07-11T04:53:47;19.50;99.90
39277;DHT22;24981;48.086;-1.686;2022-07-11T04:56:15;19.60;99.90
39277;DHT22;24981;48.086;-1.686;2022-07-11T04:58:42;19.60;99.90
39277;DHT22;24981;48.086;-1.686;2022-07-11T05:01:10;19.70;99.90
39277;DHT22;24981;48.086;-1.686;2022-07-11T05:03:37;19.70;99.90
39277;DHT22;24981;48.086;-1.686;2022-07-11T05:06:06;19.70;99.90
39277;DHT22;24981;48.086;-1.686;2022-07-11T05:08:34;19.90;99.90
39277;DHT22;24981;48.086;-1.686;2022-07-11T05:11:02;19.90;99.90
39277;DHT22;24981;48.086;-1.686;2022-07-11T05:13:30;19.90;99.80
39277;DHT22;24981;48.086;-1.686;2022-07-11T05:15:58;20.00;99.90
39277;DHT22;24981;48.086;-1.686;2022-07-11T05:18:25;20.00;99.80
39277;DHT22;24981;48.086;-1.686;2022-07-11T05:20:52;20.10;99.80
39277;DHT22;24981;48.086;-1.686;2022-07-11T05:23:21;20.00;99.90
39277;DHT22;24981;48.086;-1.686;2022-07-11T05:25:48;20.00;99.90
39277;DHT22;24981;48.086;-1.686;2022-07-11T05:28:16;20.00;99.90
39277;DHT22;24981;48.086;-1.686;2022-07-11T05:30:43;20.00;99.90
39277;DHT22;24981;48.086;-1.686;2022-07-11T05:33:10;20.00;99.90
39277;DHT22;24981;48.086;-1.686;2022-07-11T05:35:38;20.00;99.90
39277;DHT22;24981;48.086;-1.686;2022-07-11T05:38:05;20.00;99.90
39277;DHT22;24981;48.086;-1.686;2022-07-11T05:40:34;20.00;99.90
39277;DHT22;24981;48.086;-1.686;2022-07-11T05:43:01;20.00;99.90
39277;DHT22;24981;48.086;-1.686;2022-07-11T05:45:29;20.10;99.90
39277;DHT22;24981;48.086;-1.686;2022-07-11T05:47:56;20.20;99.90
39277;DHT22;24981;48.086;-1.686;2022-07-11T05:50:23;20.30;99.90
39277;DHT22;24981;48.086;-1.686;2022-07-11T05:52:51;20.20;99.90
39277;DHT22;24981;48.086;-1.686;2022-07-11T05:55:18;20.30;99.90
39277;DHT22;24981;48.086;-1.686;2022-07-11T05:57:47;20.40;99.90
39277;DHT22;24981;48.086;-1.686;2022-07-11T06:00:14;20.40;99.90
39277;DHT22;24981;48.086;-1.686;2022-07-11T06:02:42;20.40;99.90
39277;DHT22;24981;48.086;-1.686;2022-07-11T06:05:11;20.40;99.90
39277;DHT22;24981;48.086;-1.686;2022-07-11T06:07:38;20.50;99.90
39277;DHT22;24981;48.086;-1.686;2022-07-11T06:10:19;20.60;99.90
39277;DHT22;24981;48.086;-1.686;2022-07-11T06:12:48;20.70;99.90
39277;DHT22;24981;48.086;-1.686;2022-07-11T06:15:15;20.70;99.90
39277;DHT22;24981;48.086;-1.686;2022-07-11T06:17:43;20.80;99.90
39277;DHT22;24981;48.086;-1.686;2022-07-11T06:20:11;20.90;99.90
39277;DHT22;24981;48.086;-1.686;2022-07-11T06:22:39;21.00;99.90
39277;DHT22;24981;48.086;-1.686;2022-07-11T06:25:06;21.00;99.90
39277;DHT22;24981;48.086;-1.686;2022-07-11T06:27:35;21.00;99.90
39277;DHT22;24981;48.086;-1.686;2022-07-11T06:30:04;21.00;99.80
39277;DHT22;24981;48.086;-1.686;2022-07-11T06:32:31;21.10;99.70
39277;DHT22;24981;48.086;-1.686;2022-07-11T06:34:58;21.10;99.00
39277;DHT22;24981;48.086;-1.686;2022-07-11T06:37:26;21.20;98.70
39277;DHT22;24981;48.086;-1.686;2022-07-11T06:39:53;21.20;98.40
39277;DHT22;24981;48.086;-1.686;2022-07-11T06:42:20;21.30;98.00
39277;DHT22;24981;48.086;-1.686;2022-07-11T06:44:47;21.40;98.20
39277;DHT22;24981;48.086;-1.686;2022-07-11T06:47:16;21.50;97.70
39277;DHT22;24981;48.086;-1.686;2022-07-11T06:49:44;21.50;97.00
39277;DHT22;24981;48.086;-1.686;2022-07-11T06:52:11;21.60;97.30
39277;DHT22;24981;48.086;-1.686;2022-07-11T06:54:38;21.70;97.20
39277;DHT22;24981;48.086;-1.686;2022-07-11T06:57:06;21.80;97.10
39277;DHT22;24981;48.086;-1.686;2022-07-11T06:59:33;21.80;96.80
39277;DHT22;24981;48.086;-1.686;2022-07-11T07:02:00;21.90;96.70
39277;DHT22;24981;48.086;-1.686;2022-07-11T07:04:29;21.90;96.30
39277;DHT22;24981;48.086;-1.686;2022-07-11T07:06:56;21.90;96.30
39277;DHT22;24981;48.086;-1.686;2022-07-11T07:09:26;22.00;96.30
39277;DHT22;24981;48.086;-1.686;2022-07-11T07:11:53;22.00;96.30
39277;DHT22;24981;48.086;-1.686;2022-07-11T07:14:21;22.10;96.30
39277;DHT22;24981;48.086;-1.686;2022-07-11T07:16:48;22.20;95.60
39277;DHT22;24981;48.086;-1.686;2022-07-11T07:19:16;22.20;95.60
39277;DHT22;24981;48.086;-1.686;2022-07-11T07:21:44;22.30;95.40
39277;DHT22;24981;48.086;-1.686;2022-07-11T07:24:12;22.30;95.20
39277;DHT22;24981;48.086;-1.686;2022-07-11T07:26:39;22.30;95.10
39277;DHT22;24981;48.086;-1.686;2022-07-11T07:29:06;22.30;95.10
39277;DHT22;24981;48.086;-1.686;2022-07-11T07:31:33;22.40;94.80
39277;DHT22;24981;48.086;-1.686;2022-07-11T07:34:01;22.50;95.00
39277;DHT22;24981;48.086;-1.686;2022-07-11T07:36:28;22.50;94.10
39277;DHT22;24981;48.086;-1.686;2022-07-11T07:38:57;22.50;93.70
39277;DHT22;24981;48.086;-1.686;2022-07-11T07:41:24;22.60;93.50
39277;DHT22;24981;48.086;-1.686;2022-07-11T07:43:51;22.60;93.80
39277;DHT22;24981;48.086;-1.686;2022-07-11T07:46:19;22.60;93.80
39277;DHT22;24981;48.086;-1.686;2022-07-11T07:48:46;22.70;93.80
39277;DHT22;24981;48.086;-1.686;2022-07-11T07:51:14;22.80;93.60
39277;DHT22;24981;48.086;-1.686;2022-07-11T07:53:41;22.80;93.40
39277;DHT22;24981;48.086;-1.686;2022-07-11T07:56:09;22.90;93.00
39277;DHT22;24981;48.086;-1.686;2022-07-11T07:58:37;22.90;93.30
39277;DHT22;24981;48.086;-1.686;2022-07-11T08:01:05;23.00;92.70
39277;DHT22;24981;48.086;-1.686;2022-07-11T08:03:46;23.00;92.60
39277;DHT22;24981;48.086;-1.686;2022-07-11T08:06:14;23.10;92.40
39277;DHT22;24981;48.086;-1.686;2022-07-11T08:11:40;23.20;92.00
39277;DHT22;24981;48.086;-1.686;2022-07-11T08:14:08;23.30;91.50
39277;DHT22;24981;48.086;-1.686;2022-07-11T08:16:35;23.30;91.60
39277;DHT22;24981;48.086;-1.686;2022-07-11T08:19:04;23.40;91.30
39277;DHT22;24981;48.086;-1.686;2022-07-11T08:21:32;23.50;91.80
39277;DHT22;24981;48.086;-1.686;2022-07-11T08:24:14;23.50;91.30
39277;DHT22;24981;48.086;-1.686;2022-07-11T08:26:42;23.60;91.00
39277;DHT22;24981;48.086;-1.686;2022-07-11T08:29:10;23.60;90.60
39277;DHT22;24981;48.086;-1.686;2022-07-11T08:31:37;23.60;90.70
39277;DHT22;24981;48.086;-1.686;2022-07-11T08:36:46;23.80;91.10
39277;DHT22;24981;48.086;-1.686;2022-07-11T08:39:14;23.80;90.30
39277;DHT22;24981;48.086;-1.686;2022-07-11T08:41:44;23.90;90.60
39277;DHT22;24981;48.086;-1.686;2022-07-11T08:44:11;23.90;90.30
39277;DHT22;24981;48.086;-1.686;2022-07-11T08:46:53;24.00;90.00
39277;DHT22;24981;48.086;-1.686;2022-07-11T08:52:05;24.00;90.20
39277;DHT22;24981;48.086;-1.686;2022-07-11T08:54:34;24.10;88.80
39277;DHT22;24981;48.086;-1.686;2022-07-11T08:57:04;24.20;88.90
39277;DHT22;24981;48.086;-1.686;2022-07-11T08:59:34;24.30;88.40
39277;DHT22;24981;48.086;-1.686;2022-07-11T09:02:16;24.30;87.80
39277;DHT22;24981;48.086;-1.686;2022-07-11T09:04:57;24.40;88.20
39277;DHT22;24981;48.086;-1.686;2022-07-11T09:07:24;24.30;87.70
39277;DHT22;24981;48.086;-1.686;2022-07-11T09:13:05;24.40;88.50
39277;DHT22;24981;48.086;-1.686;2022-07-11T09:15:34;24.50;87.00
39277;DHT22;24981;48.086;-1.686;2022-07-11T09:18:03;24.50;86.30
39277;DHT22;24981;48.086;-1.686;2022-07-11T09:20:54;24.60;86.60
39277;DHT22;24981;48.086;-1.686;2022-07-11T09:26:32;24.60;85.90
39277;DHT22;24981;48.086;-1.686;2022-07-11T09:29:04;24.80;85.90
39277;DHT22;24981;48.086;-1.686;2022-07-11T09:31:33;24.80;86.20
39277;DHT22;24981;48.086;-1.686;2022-07-11T09:34:02;24.80;86.00
39277;DHT22;24981;48.086;-1.686;2022-07-11T09:36:45;24.80;84.80
39277;DHT22;24981;48.086;-1.686;2022-07-11T09:41:57;24.90;85.40
39277;DHT22;24981;48.086;-1.686;2022-07-11T09:44:27;25.00;84.90
39277;DHT22;24981;48.086;-1.686;2022-07-11T09:46:57;25.10;84.70
39277;DHT22;24981;48.086;-1.686;2022-07-11T09:49:39;25.00;84.30
39277;DHT22;24981;48.086;-1.686;2022-07-11T09:52:08;25.10;84.20
39277;DHT22;24981;48.086;-1.686;2022-07-11T09:54:53;25.10;84.60
39277;DHT22;24981;48.086;-1.686;2022-07-11T09:57:38;25.20;84.80
39277;DHT22;24981;48.086;-1.686;2022-07-11T10:00:09;25.20;84.80
39277;DHT22;24981;48.086;-1.686;2022-07-11T10:02:38;25.30;83.80
39277;DHT22;24981;48.086;-1.686;2022-07-11T10:05:05;25.30;83.90
39277;DHT22;24981;48.086;-1.686;2022-07-11T10:07:33;25.40;82.30
39277;DHT22;24981;48.086;-1.686;2022-07-11T10:10:04;25.40;81.30
39277;DHT22;24981;48.086;-1.686;2022-07-11T10:12:32;25.50;81.50
39277;DHT22;24981;48.086;-1.686;2022-07-11T10:15:00;25.50;81.80
39277;DHT22;24981;48.086;-1.686;2022-07-11T10:17:39;25.60;82.30
39277;DHT22;24981;48.086;-1.686;2022-07-11T10:20:13;25.60;82.00
39277;DHT22;24981;48.086;-1.686;2022-07-11T10:22:47;25.70;81.70
39277;DHT22;24981;48.086;-1.686;2022-07-11T10:25:22;25.70;79.30
39277;DHT22;24981;48.086;-1.686;2022-07-11T10:28:03;25.80;79.50
39277;DHT22;24981;48.086;-1.686;2022-07-11T10:30:48;25.90;79.50
39277;DHT22;24981;48.086;-1.686;2022-07-11T10:33:18;25.90;80.00
39277;DHT22;24981;48.086;-1.686;2022-07-11T10:35:47;26.00;78.90
39277;DHT22;24981;48.086;-1.686;2022-07-11T10:38:16;26.10;79.70
39277;DHT22;24981;48.086;-1.686;2022-07-11T10:40:45;26.00;79.90
39277;DHT22;24981;48.086;-1.686;2022-07-11T10:43:15;26.10;79.10
39277;DHT22;24981;48.086;-1.686;2022-07-11T10:45:53;26.10;78.10
39277;DHT22;24981;48.086;-1.686;2022-07-11T10:48:23;26.20;78.70
39277;DHT22;24981;48.086;-1.686;2022-07-11T10:51:05;26.30;79.00
39277;DHT22;24981;48.086;-1.686;2022-07-11T10:53:40;26.40;79.00
39277;DHT22;24981;48.086;-1.686;2022-07-11T10:59:13;26.50;79.40
39277;DHT22;24981;48.086;-1.686;2022-07-11T11:04:45;26.60;79.70
39277;DHT22;24981;48.086;-1.686;2022-07-11T11:07:30;26.60;78.90
39277;DHT22;24981;48.086;-1.686;2022-07-11T11:09:58;26.60;79.20
39277;DHT22;24981;48.086;-1.686;2022-07-11T11:15:39;26.90;77.90
39277;DHT22;24981;48.086;-1.686;2022-07-11T11:21:21;26.90;79.00
39277;DHT22;24981;48.086;-1.686;2022-07-11T11:24:06;26.90;78.20
39277;DHT22;24981;48.086;-1.686;2022-07-11T11:26:44;27.00;77.20
39277;DHT22;24981;48.086;-1.686;2022-07-11T11:29:19;27.10;76.00
39277;DHT22;24981;48.086;-1.686;2022-07-11T11:31:50;27.20;75.80
39277;DHT22;24981;48.086;-1.686;2022-07-11T11:34:18;27.20;76.40
39277;DHT22;24981;48.086;-1.686;2022-07-11T11:36:54;27.30;76.20
39277;DHT22;24981;48.086;-1.686;2022-07-11T11:39:24;27.30;75.80
39277;DHT22;24981;48.086;-1.686;2022-07-11T11:41:52;27.30;75.90
39277;DHT22;24981;48.086;-1.686;2022-07-11T11:44:19;27.40;76.70
39277;DHT22;24981;48.086;-1.686;2022-07-11T11:46:50;27.40;75.00
39277;DHT22;24981;48.086;-1.686;2022-07-11T11:49:19;27.50;75.00
39277;DHT22;24981;48.086;-1.686;2022-07-11T11:51:47;27.50;75.80
39277;DHT22;24981;48.086;-1.686;2022-07-11T11:54:23;27.60;75.10
39277;DHT22;24981;48.086;-1.686;2022-07-11T11:56:52;27.60;74.60
39277;DHT22;24981;48.086;-1.686;2022-07-11T11:59:29;27.60;75.00
39277;DHT22;24981;48.086;-1.686;2022-07-11T12:01:57;27.80;74.60
39277;DHT22;24981;48.086;-1.686;2022-07-11T12:04:30;27.80;75.20
39277;DHT22;24981;48.086;-1.686;2022-07-11T12:06:59;27.80;74.60
39277;DHT22;24981;48.086;-1.686;2022-07-11T12:09:29;27.90;74.00
39277;DHT22;24981;48.086;-1.686;2022-07-11T12:12:10;27.80;74.70
39277;DHT22;24981;48.086;-1.686;2022-07-11T12:14:51;27.90;75.00
39277;DHT22;24981;48.086;-1.686;2022-07-11T12:17:23;28.00;75.20
39277;DHT22;24981;48.086;-1.686;2022-07-11T12:19:51;28.00;74.40
39277;DHT22;24981;48.086;-1.686;2022-07-11T12:22:18;28.10;73.60
39277;DHT22;24981;48.086;-1.686;2022-07-11T12:24:49;28.20;71.60
39277;DHT22;24981;48.086;-1.686;2022-07-11T12:27:18;28.20;72.00
39277;DHT22;24981;48.086;-1.686;2022-07-11T12:29:45;28.20;72.40
39277;DHT22;24981;48.086;-1.686;2022-07-11T12:32:16;28.20;73.40
39277;DHT22;24981;48.086;-1.686;2022-07-11T12:34:45;28.40;71.50
39277;DHT22;24981;48.086;-1.686;2022-07-11T12:37:14;28.50;70.50
39277;DHT22;24981;48.086;-1.686;2022-07-11T12:39:50;28.60;71.30
39277;DHT22;24981;48.086;-1.686;2022-07-11T12:42:33;28.50;70.40
39277;DHT22;24981;48.086;-1.686;2022-07-11T12:45:03;28.50;71.50
39277;DHT22;24981;48.086;-1.686;2022-07-11T12:47:35;28.60;71.60
39277;DHT22;24981;48.086;-1.686;2022-07-11T12:50:19;28.70;72.10
39277;DHT22;24981;48.086;-1.686;2022-07-11T12:52:49;28.80;72.10
39277;DHT22;24981;48.086;-1.686;2022-07-11T12:55:33;28.80;71.90
39277;DHT22;24981;48.086;-1.686;2022-07-11T12:58:04;28.80;71.90
39277;DHT22;24981;48.086;-1.686;2022-07-11T13:00:33;28.80;71.00
39277;DHT22;24981;48.086;-1.686;2022-07-11T13:03:02;28.80;70.60
39277;DHT22;24981;48.086;-1.686;2022-07-11T13:08:22;29.00;70.70
39277;DHT22;24981;48.086;-1.686;2022-07-11T13:11:05;29.10;69.40
39277;DHT22;24981;48.086;-1.686;2022-07-11T13:13:32;29.30;70.60
39277;DHT22;24981;48.086;-1.686;2022-07-11T13:16:00;29.40;70.50
39277;DHT22;24981;48.086;-1.686;2022-07-11T13:18:28;29.70;67.70
39277;DHT22;24981;48.086;-1.686;2022-07-11T13:20:55;30.00;66.50
39277;DHT22;24981;48.086;-1.686;2022-07-11T13:23:23;30.30;65.50
39277;DHT22;24981;48.086;-1.686;2022-07-11T13:25:50;30.40;64.00
39277;DHT22;24981;48.086;-1.686;2022-07-11T13:28:19;30.60;63.70
39277;DHT22;24981;48.086;-1.686;2022-07-11T13:30:48;31.20;61.80
39277;DHT22;24981;48.086;-1.686;2022-07-11T13:33:15;31.90;62.00
39277;DHT22;24981;48.086;-1.686;2022-07-11T13:35:43;32.70;60.10
39277;DHT22;24981;48.086;-1.686;2022-07-11T13:38:11;34.00;57.20
39277;DHT22;24981;48.086;-1.686;2022-07-11T13:40:39;35.80;54.20
39277;DHT22;24981;48.086;-1.686;2022-07-11T13:43:06;37.10;49.20
39277;DHT22;24981;48.086;-1.686;2022-07-11T13:45:35;38.50;45.40
39277;DHT22;24981;48.086;-1.686;2022-07-11T13:48:02;40.20;43.40
39277;DHT22;24981;48.086;-1.686;2022-07-11T13:50:30;41.60;41.00
39277;DHT22;24981;48.086;-1.686;2022-07-11T13:52:58;42.70;38.60
39277;DHT22;24981;48.086;-1.686;2022-07-11T13:55:26;43.50;36.30
39277;DHT22;24981;48.086;-1.686;2022-07-11T13:57:55;44.30;35.30
39277;DHT22;24981;48.086;-1.686;2022-07-11T14:00:24;45.00;34.20
39277;DHT22;24981;48.086;-1.686;2022-07-11T14:02:53;46.00;33.00
39277;DHT22;24981;48.086;-1.686;2022-07-11T14:05:20;45.80;31.10
39277;DHT22;24981;48.086;-1.686;2022-07-11T14:07:48;46.10;30.50
39277;DHT22;24981;48.086;-1.686;2022-07-11T14:10:15;45.30;30.20
39277;DHT22;24981;48.086;-1.686;2022-07-11T14:12:43;45.60;30.20
39277;DHT22;24981;48.086;-1.686;2022-07-11T14:15:10;46.30;29.70
39277;DHT22;24981;48.086;-1.686;2022-07-11T14:17:38;45.90;29.40
39277;DHT22;24981;48.086;-1.686;2022-07-11T14:20:07;47.00;29.40
39277;DHT22;24981;48.086;-1.686;2022-07-11T14:22:35;47.70;28.90
39277;DHT22;24981;48.086;-1.686;2022-07-11T14:25:02;47.60;28.50
39277;DHT22;24981;48.086;-1.686;2022-07-11T14:27:31;47.20;28.50
39277;DHT22;24981;48.086;-1.686;2022-07-11T14:30:03;47.90;28.40
39277;DHT22;24981;48.086;-1.686;2022-07-11T14:32:31;48.30;27.90
39277;DHT22;24981;48.086;-1.686;2022-07-11T14:34:58;48.00;27.70
39277;DHT22;24981;48.086;-1.686;2022-07-11T14:37:27;48.60;27.70
39277;DHT22;24981;48.086;-1.686;2022-07-11T14:39:55;49.00;27.70
39277;DHT22;24981;48.086;-1.686;2022-07-11T14:42:22;49.60;27.10
39277;DHT22;24981;48.086;-1.686;2022-07-11T14:44:49;49.90;26.40
39277;DHT22;24981;48.086;-1.686;2022-07-11T14:47:17;49.60;26.30
39277;DHT22;24981;48.086;-1.686;2022-07-11T14:49:44;49.70;26.30
39277;DHT22;24981;48.086;-1.686;2022-07-11T14:52:12;49.70;26.20
39277;DHT22;24981;48.086;-1.686;2022-07-11T14:54:40;49.80;26.00
39277;DHT22;24981;48.086;-1.686;2022-07-11T14:57:08;50.20;25.80
39277;DHT22;24981;48.086;-1.686;2022-07-11T14:59:36;51.30;25.20
39277;DHT22;24981;48.086;-1.686;2022-07-11T15:02:04;52.20;25.00
39277;DHT22;24981;48.086;-1.686;2022-07-11T15:04:31;53.20;24.80
39277;DHT22;24981;48.086;-1.686;2022-07-11T15:06:58;53.80;24.20
39277;DHT22;24981;48.086;-1.686;2022-07-11T15:09:41;55.10;23.40
39277;DHT22;24981;48.086;-1.686;2022-07-11T15:12:22;55.90;23.00
39277;DHT22;24981;48.086;-1.686;2022-07-11T15:14:52;56.30;22.30
39277;DHT22;24981;48.086;-1.686;2022-07-11T15:17:19;56.60;22.10
39277;DHT22;24981;48.086;-1.686;2022-07-11T15:19:47;56.20;22.30
39277;DHT22;24981;48.086;-1.686;2022-07-11T15:22:15;56.40;22.30
39277;DHT22;24981;48.086;-1.686;2022-07-11T15:24:46;57.10;22.10
39277;DHT22;24981;48.086;-1.686;2022-07-11T15:27:13;57.50;21.80
39277;DHT22;24981;48.086;-1.686;2022-07-11T15:29:41;57.30;22.00
39277;DHT22;24981;48.086;-1.686;2022-07-11T15:32:08;57.50;22.10
39277;DHT22;24981;48.086;-1.686;2022-07-11T15:34:36;57.10;21.60
39277;DHT22;24981;48.086;-1.686;2022-07-11T15:37:03;57.10;21.80
39277;DHT22;24981;48.086;-1.686;2022-07-11T15:39:31;57.20;21.90
39277;DHT22;24981;48.086;-1.686;2022-07-11T15:42:00;56.80;21.60
39277;DHT22;24981;48.086;-1.686;2022-07-11T15:44:27;56.50;21.50
39277;DHT22;24981;48.086;-1.686;2022-07-11T15:46:54;55.90;21.50
39277;DHT22;24981;48.086;-1.686;2022-07-11T15:49:21;55.80;21.70
39277;DHT22;24981;48.086;-1.686;2022-07-11T15:51:48;56.10;21.50
39277;DHT22;24981;48.086;-1.686;2022-07-11T15:54:17;55.90;21.80
39277;DHT22;24981;48.086;-1.686;2022-07-11T15:56:44;55.60;21.90
39277;DHT22;24981;48.086;-1.686;2022-07-11T15:59:13;56.30;21.90